Mount Pleasant, MI

8:26 AM EST on January 16, 2017 (GMT -0500)
Mount Pleasant Municipal

Weather History for KMOP - October, 2012

Change the Weather History Date:

Wednesday, October 17, 2012

  Actual Average (KAMN) Record (KAMN)
Temperature  
Mean Temperature 60 °F -  
Max Temperature 72 °F 57 °F 83 °F (1950)
Min Temperature 48 °F 37 °F 21 °F (2002)
Degree Days  
Heating Degree Days 5    
Growing Degree Days 10 (Base 50)    
Moisture  
Dew Point 48 °F    
Average Humidity 69    
Maximum Humidity 92    
Minimum Humidity 37    
Precipitation  
Precipitation 0.05 in - - ()
Sea Level Pressure  
Sea Level Pressure 29.57 in    
Wind  
Wind Speed 7 mph (SSE)    
Max Wind Speed 17 mph    
Max Gust Speed 31 mph    
Visibility 10 miles    
Events Rain    
Averages and records for this station are not official NWS values.
T = Trace of Precipitation, MM = Missing Value Source: NWS Daily Summary

Daily Weather History Graph

Daily Weather History Graph

Search for Another Location

Airport or City:

Trip Planner

Search our weather history database for the weather conditions in past years. The results will help you decide how hot, cold, wet, or windy it might be!

Date:

Astronomy

Oct. 17, 2012 Rise Set
Actual Time 7:56 AM EDT 6:51 PM EDT
Civil Twilight 7:27 AM EDT 7:20 PM EDT
Nautical Twilight 6:53 AM EDT 7:53 PM EDT
Astronomical Twilight 6:20 AM EDT 8:26 PM EDT
Moon 10:35 AM EDT (10/17) 8:20 PM EDT (10/17)
Length of Visible Light 11h 53m
Length of Day
10h 55m
Waxing Crescent, 7% of the Moon is Illuminated
Oct 17
Waxing Crescent
Oct 21
First Quarter
Oct 29
Full
Nov 6
Last Quarter
Nov 13
New

Hourly Weather History & Observations

Time (EDT) Temp. Dew Point Humidity Pressure Visibility Wind Dir Wind Speed Gust Speed Precip Events Conditions
12:15 AM 50.4 °F 41.4 °F 71% 29.68 in 10.0 mi SE 8.1 mph - N/A   Overcast
12:35 AM 50.4 °F 41.7 °F 72% 29.66 in 10.0 mi SE 6.9 mph - N/A   Overcast
12:55 AM 50.2 °F 41.9 °F 73% 29.66 in 10.0 mi SSE 5.8 mph - N/A   Overcast
1:15 AM 50.9 °F 41.9 °F 71% 29.66 in 10.0 mi SSE 5.8 mph - N/A   Overcast
1:35 AM 50.5 °F 42.1 °F 73% 29.65 in 10.0 mi SE 5.8 mph - N/A Rain Light Rain
1:55 AM 50.0 °F 42.3 °F 75% 29.65 in 10.0 mi SE 3.5 mph - N/A   Mostly Cloudy
2:15 AM 50.4 °F 42.8 °F 75% 29.64 in 10.0 mi ESE 5.8 mph - N/A   Mostly Cloudy
2:35 AM 49.8 °F 43.2 °F 78% 29.64 in 10.0 mi ESE 4.6 mph - N/A   Mostly Cloudy
2:55 AM 49.8 °F 43.2 °F 78% 29.63 in 10.0 mi SE 3.5 mph - N/A   Mostly Cloudy
3:15 AM 49.6 °F 43.7 °F 80% 29.63 in 10.0 mi East 4.6 mph - N/A   Overcast
3:35 AM 49.8 °F 43.7 °F 79% 29.62 in 10.0 mi ESE 3.5 mph - N/A Rain Light Rain
3:55 AM 49.1 °F 43.7 °F 82% 29.61 in 10.0 mi ESE 4.6 mph - N/A   Clear
4:15 AM 48.2 °F 43.7 °F 84% 29.61 in 10.0 mi East 4.6 mph - N/A   Clear
4:35 AM 48.0 °F 43.9 °F 86% 29.60 in 10.0 mi East 4.6 mph - N/A   Clear
4:55 AM 48.0 °F 44.2 °F 87% 29.60 in 10.0 mi East 3.5 mph - N/A   Clear
5:15 AM 48.2 °F 44.4 °F 87% 29.60 in 10.0 mi Calm Calm - N/A   Clear
5:35 AM 49.5 °F 45.1 °F 85% 29.59 in 10.0 mi Calm Calm - N/A   Scattered Clouds
5:55 AM 49.8 °F 45.3 °F 84% 29.59 in 10.0 mi Calm Calm - N/A   Clear
6:15 AM 49.6 °F 45.5 °F 86% 29.59 in 10.0 mi ESE 3.5 mph - N/A   Clear
6:35 AM 50.7 °F 46.0 °F 84% 29.59 in 10.0 mi Calm Calm - N/A   Scattered Clouds
6:55 AM 50.9 °F 46.4 °F 85% 29.60 in 10.0 mi Calm Calm - N/A   Scattered Clouds
7:16 AM 51.4 °F 46.8 °F 84% 29.59 in 10.0 mi SE 3.5 mph - N/A   Scattered Clouds
7:55 AM 52.2 °F 46.8 °F 82% 29.59 in 10.0 mi SSE 4.6 mph - N/A   Clear
8:16 AM 52.0 °F 46.9 °F 83% 29.58 in 10.0 mi SSE 5.8 mph - N/A   Clear
8:35 AM 52.7 °F 47.3 °F 82% 29.59 in 10.0 mi SSE 8.1 mph - N/A   Clear
8:55 AM 53.2 °F 47.7 °F 81% 29.59 in 10.0 mi SSE 8.1 mph - N/A   Clear
9:15 AM 54.0 °F 48.0 °F 80% 29.60 in 10.0 mi SSE 8.1 mph - N/A   Clear
9:35 AM 54.7 °F 48.4 °F 79% 29.60 in 10.0 mi South 8.1 mph - N/A   Clear
9:55 AM 55.4 °F 48.7 °F 78% 29.60 in 10.0 mi South 6.9 mph - N/A   Clear
10:15 AM 57.0 °F 49.6 °F 76% 29.60 in 10.0 mi South 6.9 mph - N/A   Clear
10:35 AM 60.4 °F 50.2 °F 69% 29.60 in 10.0 mi South 11.5 mph 16.1 mph N/A   Clear
10:55 AM 62.4 °F 50.7 °F 66% 29.60 in 10.0 mi South 9.2 mph 16.1 mph N/A   Clear
11:15 AM 63.7 °F 50.2 °F 61% 29.59 in 10.0 mi South 10.4 mph 16.1 mph N/A   Clear
11:35 AM 64.4 °F 50.0 °F 59% 29.58 in 10.0 mi South 11.5 mph 16.1 mph N/A   Clear
11:55 AM 66.2 °F 50.5 °F 57% 29.58 in 10.0 mi South 10.4 mph - N/A   Clear
12:15 PM 66.6 °F 50.0 °F 55% 29.57 in 10.0 mi SSE 10.4 mph 17.3 mph N/A   Clear
12:35 PM 67.3 °F 49.6 °F 53% 29.57 in 10.0 mi SSE 11.5 mph 17.3 mph N/A   Clear
12:55 PM 68.7 °F 49.5 °F 50% 29.56 in 10.0 mi South 11.5 mph 20.7 mph N/A   Clear
1:15 PM 69.3 °F 50.0 °F 50% 29.56 in 10.0 mi South 11.5 mph 17.3 mph N/A   Clear
1:35 PM 69.4 °F 49.6 °F 49% 29.56 in 10.0 mi South 11.5 mph 20.7 mph N/A   Clear
1:55 PM 70.2 °F 49.5 °F 48% 29.55 in 10.0 mi SSE 12.7 mph 18.4 mph N/A   Clear
2:15 PM 70.9 °F 48.6 °F 45% 29.54 in 10.0 mi South 13.8 mph - N/A   Clear
2:35 PM 71.6 °F 48.9 °F 45% 29.53 in 10.0 mi SSE 13.8 mph 20.7 mph N/A   Clear
2:55 PM 71.1 °F 48.6 °F 45% 29.53 in 10.0 mi South 13.8 mph 17.3 mph N/A   Clear
3:15 PM 70.9 °F 47.8 °F 44% 29.53 in 10.0 mi South 13.8 mph 24.2 mph N/A   Scattered Clouds
3:35 PM 71.1 °F 47.5 °F 43% 29.52 in 10.0 mi South 12.7 mph 16.1 mph N/A   Scattered Clouds
3:55 PM 72.0 °F 47.3 °F 41% 29.52 in 10.0 mi South 12.7 mph 21.9 mph N/A   Scattered Clouds
4:15 PM 71.8 °F 47.8 °F 43% 29.51 in 10.0 mi South 9.2 mph 16.1 mph N/A   Mostly Cloudy
4:35 PM 72.0 °F 47.1 °F 41% 29.51 in 10.0 mi South 13.8 mph 19.6 mph N/A   Mostly Cloudy
4:55 PM 72.5 °F 45.1 °F 37% 29.51 in 10.0 mi South 12.7 mph 19.6 mph N/A   Scattered Clouds
5:15 PM 71.1 °F 43.5 °F 37% 29.50 in 10.0 mi South 12.7 mph 18.4 mph N/A   Scattered Clouds
5:35 PM 70.7 °F 44.2 °F 39% 29.50 in 10.0 mi South 10.4 mph - N/A   Overcast
5:55 PM 70.2 °F 45.1 °F 41% 29.50 in 10.0 mi South 10.4 mph 16.1 mph N/A   Overcast
6:15 PM 68.4 °F 48.2 °F 48% 29.51 in 10.0 mi South 11.5 mph 18.4 mph N/A   Mostly Cloudy
6:35 PM 64.0 °F 52.0 °F 65% 29.51 in 10.0 mi South 4.6 mph - N/A Rain Light Rain
6:55 PM 64.0 °F 52.0 °F 65% 29.51 in 10.0 mi South 8.1 mph - N/A   Overcast
7:15 PM 65.3 °F 51.1 °F 60% 29.51 in 10.0 mi SSE 10.4 mph - N/A   Overcast
7:35 PM 64.9 °F 51.3 °F 61% 29.51 in 10.0 mi SSE 6.9 mph - N/A   Overcast
7:55 PM 63.5 °F 52.7 °F 68% 29.51 in 10.0 mi SSE 6.9 mph - N/A Rain Light Rain
8:15 PM 62.6 °F 53.1 °F 71% 29.51 in 10.0 mi SSE 5.8 mph - N/A   Overcast
8:36 PM 62.6 °F 52.9 °F 70% 29.52 in 10.0 mi SSE 8.1 mph - N/A   Overcast
8:55 PM 63.5 °F 52.0 °F 66% 29.52 in 10.0 mi South 11.5 mph 19.6 mph N/A   Overcast
9:15 PM 63.5 °F 51.4 °F 65% 29.52 in 10.0 mi South 17.3 mph 31.1 mph N/A Rain Light Rain
9:36 PM 59.2 °F 53.4 °F 81% 29.53 in 10.0 mi South 10.4 mph 20.7 mph N/A Rain Rain
9:55 PM 57.6 °F 54.5 °F 90% 29.53 in 10.0 mi South 10.4 mph 16.1 mph 0.02 in Rain Rain
10:15 PM 57.2 °F 54.7 °F 91% 29.52 in 7.0 mi SSE 10.4 mph - 0.02 in Rain Light Rain
10:35 PM 57.2 °F 54.7 °F 91% 29.51 in 10.0 mi SSE 6.9 mph - 0.03 in   Overcast
10:55 PM 57.2 °F 54.9 °F 92% 29.51 in 10.0 mi SSE 11.5 mph 16.1 mph 0.03 in   Overcast
11:15 PM 57.6 °F 55.0 °F 91% 29.51 in 10.0 mi SSE 11.5 mph 23.0 mph N/A   Overcast
11:35 PM 57.6 °F 55.0 °F 91% 29.51 in 10.0 mi SSE 13.8 mph 19.6 mph N/A Rain Light Rain
11:55 PM 57.4 °F 55.2 °F 92% 29.50 in 10.0 mi SSE 13.8 mph 18.4 mph N/A   Overcast